createdAt,value
2019-04-03T00:00:20.975Z,18.50
2019-04-03T00:01:21.071Z,18.70
2019-04-03T00:02:20.966Z,18.20
2019-04-03T00:03:21.097Z,17.60
2019-04-03T00:04:20.940Z,19.00
2019-04-03T00:05:20.985Z,18.80
2019-04-03T00:06:20.911Z,18.70
2019-04-03T00:07:21.079Z,19.00
2019-04-03T00:08:20.920Z,18.30
2019-04-03T00:09:21.163Z,18.70
2019-04-03T00:10:20.869Z,19.00
2019-04-03T00:11:20.924Z,18.60
2019-04-03T00:12:20.849Z,18.70
2019-04-03T00:13:20.956Z,19.90
2019-04-03T00:14:20.883Z,19.10
2019-04-03T00:15:20.970Z,20.20
2019-04-03T00:16:20.941Z,19.40
2019-04-03T00:17:20.854Z,19.50
2019-04-03T00:18:20.815Z,19.90
2019-04-03T00:19:20.871Z,19.40
2019-04-03T00:20:20.770Z,20.00
2019-04-03T00:21:20.782Z,20.40
2019-04-03T00:22:22.014Z,20.50
2019-04-03T00:23:22.344Z,20.20
2019-04-03T00:24:22.678Z,21.00
2019-04-03T00:25:22.391Z,21.70
2019-04-03T00:26:22.440Z,20.20
2019-04-03T00:27:22.314Z,21.70
2019-04-03T00:28:22.284Z,21.80
2019-04-03T00:29:22.692Z,21.00
2019-04-03T00:30:22.500Z,22.10
2019-04-03T00:31:22.951Z,22.30
2019-04-03T00:32:21.767Z,21.60
2019-04-03T00:33:23.066Z,21.50
2019-04-03T00:34:22.993Z,21.80
2019-04-03T00:35:23.120Z,21.90
2019-04-03T00:36:22.850Z,22.20
2019-04-03T00:37:21.543Z,21.00
2019-04-03T00:38:20.562Z,21.60
2019-04-03T00:39:20.623Z,21.70
2019-04-03T00:40:20.541Z,21.70
2019-04-03T00:41:20.603Z,21.00
2019-04-03T00:42:20.523Z,20.50
2019-04-03T00:43:20.621Z,20.90
2019-04-03T00:44:20.528Z,21.10
2019-04-03T00:45:20.534Z,21.10
2019-04-03T00:46:20.478Z,20.40
2019-04-03T00:47:20.546Z,21.00
2019-04-03T00:48:20.454Z,21.00
2019-04-03T00:49:20.605Z,21.40
2019-04-03T00:50:20.440Z,21.90
2019-04-03T00:51:20.468Z,21.10
2019-04-03T00:52:20.406Z,20.70
2019-04-03T00:53:20.486Z,21.50
2019-04-03T00:54:20.417Z,20.70
2019-04-03T00:55:20.501Z,20.60
2019-04-03T00:56:20.369Z,22.10
2019-04-03T00:57:20.412Z,22.50
2019-04-03T00:58:20.351Z,21.50
2019-04-03T00:59:20.456Z,21.50
2019-04-03T01:00:20.326Z,21.80
2019-04-03T01:01:20.343Z,22.60
2019-04-03T01:02:20.302Z,22.80
2019-04-03T01:03:20.402Z,24.10
2019-04-03T01:04:20.309Z,25.10
2019-04-03T01:05:20.391Z,23.70
2019-04-03T01:06:20.257Z,24.30
2019-04-03T01:07:20.278Z,25.50
2019-04-03T01:08:20.244Z,26.00
2019-04-03T01:09:20.302Z,24.90
2019-04-03T01:10:20.320Z,26.30
2019-04-03T01:11:20.323Z,25.20
2019-04-03T01:12:20.198Z,26.50
2019-04-03T01:13:20.228Z,25.70
2019-04-03T01:14:20.174Z,26.20
2019-04-03T01:15:20.257Z,26.70
2019-04-03T01:16:20.190Z,26.80
2019-04-03T01:17:20.244Z,26.30
2019-04-03T01:18:20.129Z,27.30
2019-04-03T01:19:20.161Z,27.90
2019-04-03T01:20:20.110Z,27.60
2019-04-03T01:21:20.195Z,27.20
2019-04-03T01:22:20.088Z,28.80
2019-04-03T01:23:20.233Z,30.40
2019-04-03T01:24:20.095Z,30.00
2019-04-03T01:25:20.136Z,29.80
2019-04-03T01:26:20.040Z,30.50
2019-04-03T01:27:20.105Z,31.40
2019-04-03T01:28:20.028Z,30.90
2019-04-03T01:29:20.119Z,30.90
2019-04-03T01:30:20.017Z,31.50
2019-04-03T01:31:20.065Z,31.60
2019-04-03T01:32:20.038Z,32.20
2019-04-03T01:33:20.061Z,31.20
2019-04-03T01:34:19.974Z,33.40
2019-04-03T01:35:20.065Z,31.40
2019-04-03T01:36:20.110Z,32.70
2019-04-03T01:37:19.975Z,33.80
2019-04-03T01:38:19.974Z,32.50
2019-04-03T01:39:21.073Z,33.20
2019-04-03T01:40:20.865Z,33.70
2019-04-03T01:41:21.262Z,33.00
2019-04-03T01:42:22.224Z,33.20
2019-04-03T01:43:19.917Z,33.10
2019-04-03T01:44:19.853Z,34.60
2019-04-03T01:45:19.941Z,32.30
2019-04-03T01:46:19.842Z,34.00
2019-04-03T01:47:19.975Z,32.30
2019-04-03T01:48:19.797Z,34.60
2019-04-03T01:49:19.850Z,34.00
2019-04-03T01:50:19.831Z,34.60
2019-04-03T01:51:19.901Z,33.80
2019-04-03T01:52:19.754Z,33.20
2019-04-03T01:53:19.847Z,33.60
2019-04-03T01:54:19.737Z,35.10
2019-04-03T01:55:19.802Z,33.50
2019-04-03T01:56:19.745Z,33.30
2019-04-03T01:57:19.854Z,33.90
2019-04-03T01:58:19.691Z,34.20
2019-04-03T01:59:19.717Z,33.30
2019-04-03T02:00:19.667Z,33.40
2019-04-03T02:01:19.729Z,33.70
2019-04-03T02:02:19.678Z,32.80
2019-04-03T02:03:19.747Z,33.50
2019-04-03T02:04:19.627Z,33.60
2019-04-03T02:05:19.666Z,32.10
2019-04-03T02:06:19.641Z,34.20
2019-04-03T02:07:19.727Z,32.80
2019-04-03T02:08:19.578Z,31.90
2019-04-03T02:09:19.682Z,32.70
2019-04-03T02:10:19.569Z,31.30
2019-04-03T02:11:19.595Z,32.40
2019-04-03T02:12:20.234Z,32.60
2019-04-03T02:13:21.155Z,32.30
2019-04-03T02:14:21.195Z,31.40
2019-04-03T02:15:21.603Z,30.60
2019-04-03T02:16:19.490Z,30.50
2019-04-03T02:17:19.665Z,29.60
2019-04-03T02:18:19.473Z,29.60
2019-04-03T02:19:19.563Z,30.90
2019-04-03T02:20:19.452Z,27.40
2019-04-03T02:21:19.645Z,26.90
2019-04-03T02:22:19.455Z,27.70
2019-04-03T02:23:19.477Z,27.40
2019-04-03T02:24:19.405Z,26.80
2019-04-03T02:25:19.621Z,26.30
2019-04-03T02:26:19.388Z,25.20
2019-04-03T02:27:19.544Z,25.50
2019-04-03T02:28:19.367Z,26.20
2019-04-03T02:29:19.426Z,26.20
2019-04-03T02:30:19.374Z,25.00
2019-04-03T02:31:20.248Z,25.80
2019-04-03T02:32:19.394Z,25.80
2019-04-03T02:33:19.473Z,26.20
2019-04-03T02:34:19.300Z,25.40
2019-04-03T02:35:19.353Z,26.00
2019-04-03T02:36:19.305Z,25.40
2019-04-03T02:37:19.710Z,27.60
2019-04-03T02:38:21.906Z,26.70
2019-04-03T02:39:19.280Z,26.10
2019-04-03T02:40:19.236Z,27.30
2019-04-03T02:41:19.289Z,26.60
2019-04-03T02:42:19.393Z,26.90
2019-04-03T02:43:19.312Z,26.60
2019-04-03T02:44:20.068Z,27.20
2019-04-03T02:45:22.786Z,27.40
2019-04-03T02:46:19.169Z,25.80
2019-04-03T02:47:19.231Z,25.20
2019-04-03T02:48:19.343Z,24.80
2019-04-03T02:49:19.268Z,24.10
2019-04-03T02:50:19.139Z,23.70
2019-04-03T02:51:20.453Z,21.80
2019-04-03T02:52:19.109Z,21.80
2019-04-03T02:53:19.212Z,22.20
2019-04-03T02:54:19.087Z,20.10
2019-04-03T02:55:19.187Z,19.80
2019-04-03T02:56:19.060Z,19.70
2019-04-03T02:57:19.112Z,19.50
2019-04-03T02:58:21.367Z,18.50
2019-04-03T02:59:19.145Z,19.00
2019-04-03T03:00:19.017Z,19.30
2019-04-03T03:01:19.128Z,19.00
2019-04-03T03:02:19.000Z,18.10
2019-04-03T03:03:19.073Z,18.30
2019-04-03T03:04:21.502Z,18.60
2019-04-03T03:05:18.976Z,19.20
2019-04-03T03:06:18.962Z,19.90
2019-04-03T03:07:19.085Z,20.50
2019-04-03T03:08:22.387Z,20.90
2019-04-03T03:09:19.015Z,21.60
2019-04-03T03:10:20.253Z,21.20
2019-04-03T03:11:18.995Z,21.20
2019-04-03T03:12:19.078Z,21.80
2019-04-03T03:13:18.952Z,22.20
2019-04-03T03:14:18.905Z,22.80
2019-04-03T03:15:18.950Z,23.50
2019-04-03T03:16:18.975Z,23.80
2019-04-03T03:17:21.593Z,23.80
2019-04-03T03:18:18.832Z,24.60
2019-04-03T03:19:18.843Z,23.50
2019-04-03T03:20:18.847Z,24.10
2019-04-03T03:21:18.884Z,22.80
2019-04-03T03:22:19.074Z,23.50
2019-04-03T03:23:22.462Z,19.30
2019-04-03T03:24:18.829Z,20.10
2019-04-03T03:25:18.784Z,18.90
2019-04-03T03:26:18.740Z,16.90
2019-04-03T03:27:18.800Z,14.60
2019-04-03T03:28:18.711Z,15.20
2019-04-03T03:29:23.945Z,15.40
2019-04-03T03:30:35.901Z,14.60
2019-04-03T03:31:34.945Z,13.40
2019-04-03T03:32:28.519Z,14.30
2019-04-03T03:33:30.838Z,15.00
2019-04-03T03:34:43.973Z,13.50
2019-04-03T03:35:28.075Z,14.10
2019-04-03T03:36:24.470Z,12.80
2019-04-03T03:37:19.760Z,12.70
2019-04-03T03:38:18.613Z,11.40
2019-04-03T03:39:18.755Z,11.70
2019-04-03T03:40:18.589Z,10.20
2019-04-03T03:41:21.965Z,9.30
2019-04-03T03:42:18.577Z,9.80
2019-04-03T03:43:18.761Z,10.10
2019-04-03T03:44:18.571Z,9.30
2019-04-03T03:45:20.596Z,9.90
2019-04-03T03:46:18.528Z,9.60
2019-04-03T03:47:18.631Z,9.90
2019-04-03T03:48:18.581Z,9.90
2019-04-03T03:49:18.877Z,9.80
2019-04-03T03:50:22.238Z,9.70
2019-04-03T03:51:19.603Z,9.90
2019-04-03T03:52:18.623Z,11.30
2019-04-03T03:53:18.565Z,11.30
2019-04-03T03:54:19.140Z,13.00
2019-04-03T03:55:22.567Z,13.60
2019-04-03T03:56:18.422Z,14.00
2019-04-03T03:57:18.747Z,12.80
2019-04-03T03:58:18.386Z,13.70
2019-04-03T03:59:18.965Z,14.20
2019-04-03T04:00:22.564Z,12.60
2019-04-03T04:01:18.806Z,12.50
2019-04-03T04:02:18.363Z,13.30
2019-04-03T04:03:18.436Z,12.90
2019-04-03T04:04:18.433Z,12.80
2019-04-03T04:05:21.444Z,12.70
2019-04-03T04:06:18.293Z,13.20
2019-04-03T04:07:18.382Z,13.60
2019-04-03T04:08:18.408Z,13.20
2019-04-03T04:09:18.647Z,13.80
2019-04-03T04:10:18.566Z,13.00
2019-04-03T04:11:18.314Z,13.20
2019-04-03T04:12:18.484Z,14.00
2019-04-03T04:13:18.313Z,13.20
2019-04-03T04:14:21.094Z,13.40
2019-04-03T04:15:18.322Z,12.70
2019-04-03T04:16:18.398Z,13.20
2019-04-03T04:17:19.035Z,13.40
2019-04-03T04:18:18.188Z,13.00
2019-04-03T04:19:18.252Z,13.00
2019-04-03T04:20:18.143Z,13.30
2019-04-03T04:21:18.325Z,13.40
2019-04-03T04:22:18.626Z,13.90
2019-04-03T04:23:18.172Z,13.70
2019-04-03T04:24:18.142Z,14.20
2019-04-03T04:25:18.179Z,13.30
2019-04-03T04:26:18.216Z,13.70
2019-04-03T04:27:18.200Z,12.90
2019-04-03T04:28:18.132Z,13.80
2019-04-03T04:29:18.108Z,13.90
2019-04-03T04:30:18.030Z,13.80
2019-04-03T04:31:18.250Z,14.10
2019-04-03T04:32:18.011Z,13.70
2019-04-03T04:33:18.542Z,13.70
2019-04-03T04:34:18.841Z,12.60
2019-04-03T04:35:20.741Z,13.40
2019-04-03T04:36:18.183Z,14.00
2019-04-03T04:37:18.063Z,13.20
2019-04-03T04:38:17.954Z,12.40
2019-04-03T04:39:17.969Z,13.50
2019-04-03T04:40:17.926Z,12.80
2019-04-03T04:41:18.163Z,13.00
2019-04-03T04:42:17.933Z,12.90
2019-04-03T04:43:18.039Z,12.60
2019-04-03T04:44:17.906Z,12.70
2019-04-03T04:45:17.907Z,13.50
2019-04-03T04:46:17.937Z,13.90
2019-04-03T04:47:17.927Z,13.50
2019-04-03T04:48:20.357Z,13.30
2019-04-03T04:49:18.016Z,13.30
2019-04-03T04:50:17.807Z,13.10
2019-04-03T04:51:17.851Z,13.90
2019-04-03T04:52:18.102Z,13.60
2019-04-03T04:53:17.899Z,13.10
2019-04-03T04:54:17.769Z,13.40
2019-04-03T04:55:17.973Z,13.50
2019-04-03T04:56:17.743Z,14.10
2019-04-03T04:57:17.861Z,13.40
2019-04-03T04:58:17.745Z,13.80
2019-04-03T04:59:18.054Z,13.80
2019-04-03T05:00:17.706Z,14.60
2019-04-03T05:01:18.225Z,13.80
2019-04-03T05:02:19.650Z,14.10
2019-04-03T05:03:17.783Z,13.80
2019-04-03T05:04:17.684Z,13.70
2019-04-03T05:05:17.742Z,14.40
2019-04-03T05:06:17.640Z,14.90
2019-04-03T05:07:17.797Z,14.90
2019-04-03T05:08:17.889Z,15.20
2019-04-03T05:09:17.886Z,14.80
2019-04-03T05:10:18.076Z,15.80
2019-04-03T05:11:17.692Z,16.40
2019-04-03T05:12:17.572Z,15.40
2019-04-03T05:13:17.802Z,16.30
2019-04-03T05:14:18.288Z,16.30
2019-04-03T05:15:19.521Z,16.60
2019-04-03T05:16:20.161Z,15.00
2019-04-03T05:17:17.625Z,16.30
2019-04-03T05:18:17.546Z,16.80
2019-04-03T05:19:19.317Z,16.50
2019-04-03T05:20:19.548Z,16.40
2019-04-03T05:21:17.567Z,16.30
2019-04-03T05:22:17.462Z,16.50
2019-04-03T05:23:17.590Z,16.30
2019-04-03T05:24:17.645Z,16.50
2019-04-03T05:25:17.463Z,17.00
2019-04-03T05:26:17.676Z,17.60
2019-04-03T05:27:17.488Z,16.20
2019-04-03T05:28:17.432Z,16.30
2019-04-03T05:29:17.553Z,17.00
2019-04-03T05:30:20.315Z,17.30
2019-04-03T05:31:17.443Z,16.90
2019-04-03T05:32:17.535Z,16.60
2019-04-03T05:33:17.477Z,16.90
2019-04-03T05:34:17.337Z,16.90
2019-04-03T05:35:17.443Z,17.00
2019-04-03T05:36:18.280Z,16.60
2019-04-03T05:37:19.719Z,17.20
2019-04-03T05:38:17.317Z,16.50
2019-04-03T05:39:17.356Z,16.90
2019-04-03T05:40:17.268Z,17.20
2019-04-03T05:41:17.408Z,17.40
2019-04-03T05:42:17.292Z,16.80
2019-04-03T05:43:17.269Z,17.20
2019-04-03T05:44:17.214Z,17.90
2019-04-03T05:45:17.219Z,17.20
2019-04-03T05:46:19.162Z,17.60
2019-04-03T05:47:17.198Z,17.20
2019-04-03T05:48:18.418Z,17.30
2019-04-03T05:49:19.275Z,17.80
2019-04-03T05:50:17.151Z,17.70
2019-04-03T05:51:17.190Z,17.10
2019-04-03T05:52:17.152Z,16.80
2019-04-03T05:53:17.142Z,16.90
2019-04-03T05:54:17.141Z,17.20
2019-04-03T05:55:17.128Z,17.70
2019-04-03T05:56:17.305Z,18.20
2019-04-03T05:57:17.345Z,17.70
2019-04-03T05:58:17.339Z,18.50
2019-04-03T05:59:17.088Z,17.30
2019-04-03T06:00:17.217Z,18.80
2019-04-03T06:01:17.052Z,16.80
2019-04-03T06:02:20.371Z,17.90
2019-04-03T06:03:17.017Z,17.20
2019-04-03T06:04:17.207Z,17.30
2019-04-03T06:05:19.117Z,18.00
2019-04-03T06:06:17.286Z,18.00
2019-04-03T06:07:18.195Z,18.20
2019-04-03T06:08:17.878Z,19.80
2019-04-03T06:09:16.979Z,18.20
2019-04-03T06:10:16.941Z,19.10
2019-04-03T06:11:16.924Z,19.20
2019-04-03T06:12:18.831Z,19.30
2019-04-03T06:13:17.602Z,19.40
2019-04-03T06:14:19.035Z,18.60
2019-04-03T06:15:16.878Z,18.50
2019-04-03T06:16:17.232Z,19.20
2019-04-03T06:17:16.865Z,19.40
2019-04-03T06:18:17.974Z,19.10
2019-04-03T06:19:16.979Z,20.70
2019-04-03T06:20:16.850Z,24.00
2019-04-03T06:21:16.830Z,24.00
2019-04-03T06:22:17.973Z,23.80
2019-04-03T06:23:16.799Z,24.00
2019-04-03T06:24:18.025Z,25.00
2019-04-03T06:25:16.829Z,24.30
2019-04-03T06:26:16.772Z,20.30
2019-04-03T06:27:19.070Z,20.10
2019-04-03T06:28:16.978Z,22.40
2019-04-03T06:29:18.446Z,19.70
2019-04-03T06:30:16.775Z,19.80
2019-04-03T06:31:16.764Z,18.20
2019-04-03T06:32:16.693Z,17.10
2019-04-03T06:33:16.687Z,18.20
2019-04-03T06:34:16.673Z,18.10
2019-04-03T06:35:16.706Z,17.00
2019-04-03T06:36:17.917Z,17.90
2019-04-03T06:37:16.869Z,17.60
2019-04-03T06:38:16.993Z,18.90
2019-04-03T06:39:16.666Z,19.90
2019-04-03T06:40:16.664Z,19.40
2019-04-03T06:41:16.596Z,20.40
2019-04-03T06:42:16.586Z,21.10
2019-04-03T06:43:17.330Z,22.10
2019-04-03T06:44:16.571Z,19.50
2019-04-03T06:45:16.835Z,18.90
2019-04-03T06:46:16.568Z,18.80
2019-04-03T06:47:16.564Z,19.70
2019-04-03T06:48:16.523Z,18.90
2019-04-03T06:49:16.572Z,19.50
2019-04-03T06:50:17.539Z,18.90
2019-04-03T06:51:16.916Z,19.00
2019-04-03T06:52:16.655Z,18.80
2019-04-03T06:53:16.468Z,19.50
2019-04-03T06:54:16.724Z,17.70
2019-04-03T06:55:16.456Z,17.60
2019-04-03T06:56:16.492Z,19.60
2019-04-03T06:57:16.471Z,19.60
2019-04-03T06:58:16.413Z,19.50
2019-04-03T06:59:17.026Z,18.60
2019-04-03T07:00:16.622Z,18.00
2019-04-03T07:01:16.419Z,18.60
2019-04-03T07:02:16.398Z,18.80
2019-04-03T07:03:16.354Z,17.80
2019-04-03T07:04:16.343Z,18.50
2019-04-03T07:05:16.339Z,17.60
2019-04-03T07:06:16.486Z,17.60
2019-04-03T07:07:31.758Z,18.00
2019-04-03T07:08:28.721Z,18.20
2019-04-03T07:09:23.763Z,19.30
2019-04-03T07:10:25.089Z,17.40
2019-04-03T07:11:23.344Z,17.70
2019-04-03T07:12:17.326Z,18.30
2019-04-03T07:13:16.314Z,18.00
2019-04-03T07:14:16.237Z,18.70
2019-04-03T07:15:16.327Z,19.40
2019-04-03T07:16:16.220Z,19.80
2019-04-03T07:17:16.231Z,18.10
2019-04-03T07:18:16.209Z,18.60
2019-04-03T07:19:16.177Z,18.70
2019-04-03T07:20:19.342Z,18.90
2019-04-03T07:21:16.183Z,18.70
2019-04-03T07:22:16.179Z,18.80
2019-04-03T07:23:16.137Z,18.30
2019-04-03T07:24:16.150Z,17.70
2019-04-03T07:25:16.126Z,19.50
2019-04-03T07:26:16.293Z,18.30
2019-04-03T07:27:16.135Z,18.60
2019-04-03T07:28:16.096Z,19.00
2019-04-03T07:29:17.289Z,18.70
2019-04-03T07:30:17.584Z,16.80
2019-04-03T07:31:16.042Z,17.50
2019-04-03T07:32:16.041Z,17.10
2019-04-03T07:33:16.075Z,16.60
2019-04-03T07:34:16.352Z,16.50
2019-04-03T07:35:16.123Z,16.20
2019-04-03T07:36:15.998Z,16.80
2019-04-03T07:37:18.820Z,17.10
2019-04-03T07:38:16.006Z,16.50
2019-04-03T07:39:16.978Z,17.90
2019-04-03T07:40:15.949Z,16.30
2019-04-03T07:41:16.249Z,16.50
2019-04-03T07:42:16.120Z,16.50
2019-04-03T07:43:16.014Z,16.50
2019-04-03T07:44:15.919Z,17.60
2019-04-03T07:45:15.891Z,17.20
2019-04-03T07:46:15.972Z,17.60
2019-04-03T07:47:16.167Z,17.50
2019-04-03T07:48:16.165Z,17.10
2019-04-03T07:49:16.024Z,17.40
2019-04-03T07:50:15.850Z,18.40
2019-04-03T07:51:16.120Z,17.60
2019-04-03T07:52:16.800Z,18.00
2019-04-03T07:53:15.840Z,18.90
2019-04-03T07:54:15.954Z,17.30
2019-04-03T07:55:15.812Z,18.60
2019-04-03T07:56:15.792Z,18.60
2019-04-03T07:57:16.431Z,18.40
2019-04-03T07:58:15.810Z,20.60
2019-04-03T07:59:15.742Z,20.30
2019-04-03T08:00:15.737Z,18.40
2019-04-03T08:01:18.735Z,19.00
2019-04-03T08:02:15.713Z,19.60
2019-04-03T08:03:15.742Z,19.20
2019-04-03T08:04:16.621Z,19.90
2019-04-03T08:05:15.674Z,19.80
2019-04-03T08:06:15.700Z,20.00
2019-04-03T08:07:15.659Z,18.10
2019-04-03T08:08:15.657Z,19.60
2019-04-03T08:09:15.672Z,19.30
2019-04-03T08:10:15.642Z,20.10
2019-04-03T08:11:15.623Z,20.00
2019-04-03T08:12:17.508Z,20.70
2019-04-03T08:13:15.601Z,20.20
2019-04-03T08:14:15.725Z,21.10
2019-04-03T08:15:15.578Z,17.80
2019-04-03T08:17:18.507Z,19.10
2019-04-03T08:18:15.534Z,18.60
2019-04-03T08:19:15.553Z,19.30
2019-04-03T08:20:15.522Z,20.00
2019-04-03T08:21:15.525Z,19.10
2019-04-03T08:22:15.493Z,20.10
2019-04-03T08:23:15.489Z,19.40
2019-04-03T08:24:15.503Z,19.60
2019-04-03T08:25:15.453Z,20.30
2019-04-03T08:26:18.484Z,19.10
2019-04-03T08:27:15.438Z,19.80
2019-04-03T08:28:15.588Z,18.40
2019-04-03T08:29:15.466Z,19.40
2019-04-03T08:30:15.717Z,18.60
2019-04-03T08:31:15.580Z,18.50
2019-04-03T08:32:16.309Z,18.90
2019-04-03T08:33:18.294Z,17.80
2019-04-03T08:34:18.062Z,19.20
2019-04-03T08:35:21.677Z,18.70
2019-04-03T08:36:24.070Z,18.70
2019-04-03T08:37:28.438Z,19.60
2019-04-03T08:38:16.335Z,19.30
2019-04-03T08:39:16.062Z,18.60
2019-04-03T08:40:15.347Z,19.00
2019-04-03T08:41:15.375Z,19.70
2019-04-03T08:42:15.273Z,18.50
2019-04-03T08:43:15.269Z,19.20
2019-04-03T08:44:15.545Z,20.20
2019-04-03T08:45:15.388Z,20.80
2019-04-03T08:46:15.237Z,21.00
2019-04-03T08:47:15.398Z,20.40
2019-04-03T08:48:17.528Z,20.90
2019-04-03T08:49:15.206Z,19.40
2019-04-03T08:50:15.483Z,20.00
2019-04-03T08:51:15.429Z,19.90
2019-04-03T08:52:15.170Z,20.40
2019-04-03T08:53:15.292Z,21.60
2019-04-03T08:54:15.146Z,21.20
2019-04-03T08:55:15.166Z,20.30
2019-04-03T08:56:16.862Z,21.90
2019-04-03T08:57:15.115Z,21.00
2019-04-03T08:58:15.099Z,19.30
2019-04-03T08:59:15.094Z,19.80
2019-04-03T09:00:15.110Z,19.60
2019-04-03T09:01:15.099Z,19.80
2019-04-03T09:02:15.054Z,20.40
2019-04-03T09:03:15.349Z,21.20
2019-04-03T09:04:16.786Z,21.10
2019-04-03T09:05:15.174Z,20.90
2019-04-03T09:06:15.062Z,23.20
2019-04-03T09:07:15.003Z,22.20
2019-04-03T09:08:14.992Z,23.10
2019-04-03T09:09:15.030Z,19.50
2019-04-03T09:10:14.967Z,21.80
2019-04-03T09:11:15.302Z,22.50
2019-04-03T09:12:14.951Z,24.00
2019-04-03T09:13:17.683Z,21.40
2019-04-03T09:14:15.021Z,21.20
2019-04-03T09:15:14.931Z,22.70
2019-04-03T09:16:14.927Z,22.60
2019-04-03T09:17:14.907Z,21.90
2019-04-03T09:18:15.131Z,21.30
2019-04-03T09:19:16.876Z,21.00
2019-04-03T09:20:14.876Z,20.40
2019-04-03T09:21:15.987Z,21.60
2019-04-03T09:22:14.863Z,22.40
2019-04-03T09:23:14.832Z,22.90
2019-04-03T09:24:14.831Z,22.70
2019-04-03T09:25:14.816Z,23.50
2019-04-03T09:26:14.839Z,22.70
2019-04-03T09:27:15.018Z,22.20
2019-04-03T09:28:15.125Z,22.00
2019-04-03T09:29:14.777Z,20.90
2019-04-03T09:30:16.212Z,21.80
2019-04-03T09:31:14.779Z,22.80
2019-04-03T09:32:14.804Z,21.70
2019-04-03T09:33:14.731Z,25.50
2019-04-03T09:34:15.054Z,20.70
2019-04-03T09:35:14.703Z,22.70
2019-04-03T09:36:14.721Z,22.60
2019-04-03T09:37:17.497Z,23.20
2019-04-03T09:38:14.669Z,24.20
2019-04-03T09:39:15.070Z,20.30
2019-04-03T09:40:16.436Z,21.40
2019-04-03T09:41:14.672Z,19.40
2019-04-03T09:42:14.640Z,18.80
2019-04-03T09:43:14.648Z,20.00
2019-04-03T09:44:14.653Z,19.10
2019-04-03T09:45:14.598Z,22.60
2019-04-03T09:46:14.620Z,21.10
2019-04-03T09:47:14.596Z,20.10
2019-04-03T09:48:14.559Z,22.40
2019-04-03T09:49:14.624Z,22.60
2019-04-03T09:50:14.989Z,23.60
2019-04-03T09:51:17.598Z,23.30
2019-04-03T09:52:14.545Z,24.30
2019-04-03T09:53:14.923Z,23.70
2019-04-03T09:54:14.496Z,23.40
2019-04-03T09:55:14.487Z,24.30
2019-04-03T09:56:14.481Z,23.00
2019-04-03T09:57:14.490Z,22.80
2019-04-03T09:58:14.775Z,24.40
2019-04-03T09:59:15.919Z,25.00
2019-04-03T10:00:14.744Z,23.80
2019-04-03T10:01:17.772Z,23.90
2019-04-03T10:02:14.643Z,24.10
2019-04-03T10:03:14.402Z,25.70
2019-04-03T10:04:14.641Z,24.00
2019-04-03T10:05:14.376Z,24.90
2019-04-03T10:06:14.378Z,25.90
2019-04-03T10:07:14.424Z,24.30
2019-04-03T10:08:14.684Z,24.70
2019-04-03T10:09:14.348Z,24.00
2019-04-03T10:10:16.540Z,24.20
2019-04-03T10:11:15.487Z,24.60
2019-04-03T10:12:14.743Z,24.50
2019-04-03T10:13:14.497Z,24.60
2019-04-03T10:14:14.306Z,24.00
2019-04-03T10:15:14.267Z,24.60
2019-04-03T10:16:16.393Z,23.40
2019-04-03T10:17:14.312Z,23.00
2019-04-03T10:18:14.245Z,23.10
2019-04-03T10:19:14.755Z,22.80
2019-04-03T10:20:15.062Z,23.40
2019-04-03T10:21:14.204Z,23.80
2019-04-03T10:22:14.198Z,23.00
2019-04-03T10:23:14.210Z,25.00
2019-04-03T10:24:14.286Z,24.40
2019-04-03T10:25:14.166Z,23.50
2019-04-03T10:26:14.247Z,24.10
2019-04-03T10:27:14.146Z,22.70
2019-04-03T10:28:15.151Z,23.60
2019-04-03T10:29:14.333Z,24.10
2019-04-03T10:30:14.298Z,23.70
2019-04-03T10:31:14.105Z,24.10
2019-04-03T10:32:14.077Z,24.60
2019-04-03T10:33:14.252Z,25.70
2019-04-03T10:34:14.789Z,24.80
2019-04-03T10:35:14.270Z,24.50
2019-04-03T10:36:14.276Z,25.00
2019-04-03T10:37:15.136Z,25.10
2019-04-03T10:38:14.326Z,23.00
2019-04-03T10:39:14.020Z,23.30
2019-04-03T10:40:14.003Z,24.00
2019-04-03T10:41:14.076Z,25.20
2019-04-03T10:42:13.981Z,23.40
2019-04-03T10:43:14.269Z,23.50
2019-04-03T10:44:13.979Z,23.70
2019-04-03T10:45:13.942Z,22.90
2019-04-03T10:46:14.248Z,23.10
2019-04-03T10:47:13.919Z,22.70
2019-04-03T10:48:13.915Z,23.00
2019-04-03T10:49:13.917Z,23.90
2019-04-03T10:50:14.061Z,24.20
2019-04-03T10:51:14.200Z,23.70
2019-04-03T10:52:14.450Z,23.90
2019-04-03T10:53:13.878Z,24.90
2019-04-03T10:54:14.171Z,23.80
2019-04-03T10:55:13.873Z,24.40
2019-04-03T10:56:13.863Z,24.00
2019-04-03T10:57:14.053Z,23.30
2019-04-03T10:58:13.811Z,23.30
2019-04-03T10:59:17.473Z,24.10
2019-04-03T11:00:13.791Z,24.20
2019-04-03T11:01:13.782Z,23.20
2019-04-03T11:02:13.752Z,22.90
2019-04-03T11:03:13.886Z,24.50
2019-04-03T11:04:13.834Z,23.40
2019-04-03T11:05:13.985Z,24.10
2019-04-03T11:06:13.715Z,23.60
2019-04-03T11:07:13.703Z,22.90
2019-04-03T11:08:13.694Z,23.60
2019-04-03T11:09:13.734Z,21.30
2019-04-03T11:10:13.664Z,22.20
2019-04-03T11:11:13.789Z,22.40
2019-04-03T11:12:13.802Z,23.00
2019-04-03T11:13:13.747Z,25.40
2019-04-03T11:14:13.645Z,23.90
2019-04-03T11:15:13.695Z,22.60
2019-04-03T11:16:15.058Z,23.00
2019-04-03T11:17:13.689Z,23.10
2019-04-03T11:18:13.822Z,21.50
2019-04-03T11:19:13.690Z,21.70
2019-04-03T11:20:13.920Z,21.60
2019-04-03T11:21:13.605Z,21.60
2019-04-03T11:22:14.210Z,22.10
2019-04-03T11:23:13.615Z,22.30
2019-04-03T11:24:13.521Z,22.10
2019-04-03T11:25:15.256Z,21.30
2019-04-03T11:26:13.863Z,19.90
2019-04-03T11:27:13.547Z,19.10
2019-04-03T11:28:14.053Z,18.10
2019-04-03T11:29:13.860Z,17.90
2019-04-03T11:30:17.357Z,15.90
2019-04-03T11:31:24.923Z,15.90
2019-04-03T11:32:14.446Z,16.80
2019-04-03T11:33:13.990Z,16.40
2019-04-03T11:34:16.721Z,15.60
2019-04-03T11:35:13.829Z,14.80
2019-04-03T11:36:13.387Z,14.80
2019-04-03T11:37:13.403Z,13.50
2019-04-03T11:38:20.058Z,13.70
2019-04-03T11:39:16.112Z,14.40
2019-04-03T11:40:13.799Z,14.90
2019-04-03T11:41:18.148Z,14.60
2019-04-03T11:42:24.035Z,15.30
2019-04-03T11:43:14.339Z,15.50
2019-04-03T11:44:13.361Z,15.10
2019-04-03T11:45:13.657Z,14.90
2019-04-03T11:46:13.367Z,15.90
2019-04-03T11:47:14.108Z,15.70
2019-04-03T11:48:16.411Z,15.80
2019-04-03T11:49:13.558Z,16.20
2019-04-03T11:50:13.382Z,15.80
2019-04-03T11:51:13.275Z,14.50
2019-04-03T11:52:13.307Z,15.60
2019-04-03T11:53:13.199Z,13.70
2019-04-03T11:55:14.552Z,14.90
2019-04-03T11:56:14.017Z,16.50
2019-04-03T11:57:14.004Z,17.20
2019-04-03T11:58:13.572Z,15.90
2019-04-03T11:59:13.131Z,15.00
2019-04-03T12:00:13.391Z,15.90
2019-04-03T12:01:15.757Z,14.60
2019-04-03T12:02:13.164Z,13.20
2019-04-03T12:03:13.107Z,11.90
2019-04-03T12:04:13.626Z,10.20
2019-04-03T12:05:15.368Z,9.90
2019-04-03T12:06:15.680Z,9.30
2019-04-03T12:07:13.054Z,7.20
2019-04-03T12:08:13.127Z,8.00
2019-04-03T12:09:13.063Z,8.90
2019-04-03T12:10:13.460Z,9.90
2019-04-03T12:11:13.029Z,9.70
2019-04-03T12:12:13.031Z,9.50
2019-04-03T12:13:14.278Z,7.80
2019-04-03T12:14:13.051Z,9.30
2019-04-03T12:15:16.064Z,9.40
2019-04-03T12:16:13.091Z,8.50
2019-04-03T12:17:12.934Z,9.80
2019-04-03T12:18:12.983Z,9.40
2019-04-03T12:19:12.914Z,9.20
2019-04-03T12:21:14.809Z,8.00
2019-04-03T12:22:13.109Z,7.70
2019-04-03T12:23:12.867Z,8.10
2019-04-03T12:24:12.915Z,8.00
2019-04-03T12:25:12.960Z,6.40
2019-04-03T12:26:13.007Z,7.20
2019-04-03T12:27:14.045Z,7.00
2019-04-03T12:28:13.019Z,6.80
2019-04-03T12:29:12.802Z,7.10
2019-04-03T12:30:12.856Z,6.20
2019-04-03T12:31:12.852Z,6.60
2019-04-03T12:32:12.919Z,6.60
2019-04-03T12:33:12.776Z,7.30
2019-04-03T12:34:12.922Z,8.00
2019-04-03T12:35:12.831Z,8.60
2019-04-03T12:36:13.865Z,8.40
2019-04-03T12:37:12.747Z,8.20
2019-04-03T12:38:12.815Z,8.30
2019-04-03T12:40:13.693Z,7.80
2019-04-03T12:41:12.722Z,8.70
2019-04-03T12:42:12.685Z,8.20
2019-04-03T12:44:13.685Z,8.60
2019-04-03T12:45:12.754Z,8.40
2019-04-03T12:46:13.006Z,8.10
2019-04-03T12:47:13.731Z,8.70
2019-04-03T12:48:12.596Z,8.10
2019-04-03T12:49:12.800Z,8.50
2019-04-03T12:50:13.460Z,7.70
2019-04-03T12:51:12.604Z,7.80
2019-04-03T12:52:12.596Z,8.10
2019-04-03T12:53:15.746Z,7.70
2019-04-03T12:54:13.932Z,7.90
2019-04-03T12:55:12.940Z,7.00
2019-04-03T12:56:12.524Z,7.60
2019-04-03T12:57:12.563Z,7.40
2019-04-03T12:58:12.544Z,7.60
2019-04-03T12:59:12.904Z,7.80